KHUM

Houma-Terrebonne Airport

Houma, Louisiana, USA
METAR KHUM 210355Z AUTO 19003KT 7SM CLR 26/25 A3006 RMK AO2 T02600251
Observed Flight Rules
Aug-21 @ 03:55 UTC (17 minutes ago) Visual Flight Rules
Wind Visibility Clouds
190° at 3 knots 7 miles
  • Clear skies
Temperatures Readings
Current 26°C / 79°F
Dewpoint 25°C / 77°F
Humidity 94%
Altimeter 30.06" Hg
Pressure 1018 hPa
Elevation 3
METAR KHUM 210355Z AUTO 19003KT 7SM CLR 26/25 A3006 RMK AO2 T02600251
Observed Flight Rules
Aug-21 @ 03:55 UTC
(17 minutes ago)
VFR
Wind Visibility
190° at 3 knots 7 miles
Clouds
  • Clear skies
Temperature Dewpoint
26°C / 79°F 25°C / 77°F
Humidity Altimeter Pressure
94% 30.06" Hg 1018 hPa